Time;durP1;ratioP1;P1;durP2;ratioP2;P2;SDS_P1;SDS_P2;PMS_P1;PMS_P2;Temp;Humidity;BMP_temperature;BMP_pressure;BME280_temperature;BME280_humidity;BME280_pressure;Samples;Min_cycle;Max_cycle;Signal;HPM_P1;HPM_P2
2023/08/10 00:00:39;;;;;;;4.57;2.90;;;22.50;76.60;;;;;;5069910;28;20067;-75
2023/08/10 00:03:05;;;;;;;3.10;2.33;;;22.50;77.10;;;;;;5066294;28;20111;-74
2023/08/10 00:05:31;;;;;;;3.65;2.75;;;22.40;77.60;;;;;;5067280;28;20186;-74
2023/08/10 00:07:57;;;;;;;4.38;2.40;;;22.40;78.00;;;;;;5066286;28;20476;-74
2023/08/10 00:10:23;;;;;;;4.97;2.90;;;22.40;77.50;;;;;;5068292;28;20046;-74
2023/08/10 00:12:49;;;;;;;3.08;2.30;;;22.50;77.10;;;;;;5068947;28;20040;-74
2023/08/10 00:15:15;;;;;;;6.32;2.40;;;22.50;77.00;;;;;;5071138;28;20139;-74
2023/08/10 00:17:41;;;;;;;4.32;2.63;;;22.50;77.20;;;;;;5064975;28;20136;-75
2023/08/10 00:20:10;;;;;;;2.88;2.30;;;22.50;77.10;;;;;;5068095;28;20086;-74
2023/08/10 00:22:36;;;;;;;7.93;2.63;;;22.50;77.00;;;;;;5066669;28;20036;-75
2023/08/10 00:25:04;;;;;;;3.00;2.10;;;22.40;77.00;;;;;;5069902;28;20043;-75
2023/08/10 00:27:30;;;;;;;3.53;2.45;;;22.30;77.70;;;;;;5066937;28;20040;-75
2023/08/10 00:29:56;;;;;;;7.10;2.65;;;22.20;77.60;;;;;;5070178;28;20030;-75
2023/08/10 00:32:22;;;;;;;3.45;2.40;;;22.30;77.60;;;;;;5068758;28;20040;-75
2023/08/10 00:34:48;;;;;;;4.80;2.22;;;22.20;77.70;;;;;;5069195;28;20040;-75
2023/08/10 00:37:14;;;;;;;5.28;2.58;;;22.20;77.90;;;;;;5065425;28;20196;-74
2023/08/10 00:39:40;;;;;;;4.15;2.40;;;22.30;77.50;;;;;;5065400;28;20049;-75
2023/08/10 00:42:06;;;;;;;3.47;2.33;;;22.20;77.50;;;;;;5069636;28;20086;-75
2023/08/10 00:44:32;;;;;;;6.13;2.45;;;22.20;78.30;;;;;;5072532;28;20060;-75
2023/08/10 00:46:59;;;;;;;3.13;2.50;;;22.20;78.00;;;;;;5065688;28;20083;-75
2023/08/10 00:49:26;;;;;;;5.05;2.65;;;22.20;77.80;;;;;;5067285;28;20085;-74
2023/08/10 00:51:52;;;;;;;4.72;2.65;;;22.10;77.70;;;;;;5052044;28;20040;-74
2023/08/10 00:54:18;;;;;;;4.93;2.92;;;22.00;78.40;;;;;;5069026;28;20087;-75
2023/08/10 00:56:44;;;;;;;3.35;2.50;;;22.10;78.20;;;;;;5065803;28;20067;-75
2023/08/10 00:59:11;;;;;;;4.13;2.72;;;22.00;78.60;;;;;;5072358;28;20028;-75
2023/08/10 01:01:37;;;;;;;4.45;2.30;;;22.00;78.20;;;;;;5065193;28;20553;-74
2023/08/10 01:04:03;;;;;;;4.63;2.45;;;22.10;78.20;;;;;;5064105;28;20037;-75
2023/08/10 01:06:44;;;;;;;5.30;2.70;;;22.10;78.20;;;;;;5067256;28;20044;-75
2023/08/10 01:09:14;;;;;;;4.20;2.67;;;22.10;78.20;;;;;;5066657;28;20040;-75
2023/08/10 01:12:00;;;;;;;2.63;2.40;;;22.10;78.30;;;;;;5064850;28;20039;-73
2023/08/10 01:14:30;;;;;;;2.55;2.08;;;22.10;78.10;;;;;;5071862;28;20511;-74
2023/08/10 01:16:59;;;;;;;4.93;3.08;;;22.10;78.30;;;;;;5068689;28;20040;-73
2023/08/10 01:19:37;;;;;;;6.78;2.80;;;22.10;77.80;;;;;;5066951;28;20036;-74
2023/08/10 01:22:20;;;;;;;4.47;2.60;;;22.20;77.70;;;;;;5064359;28;20036;-73
2023/08/10 01:25:07;;;;;;;3.28;2.40;;;22.20;77.80;;;;;;5070878;28;20032;-73
2023/08/10 01:27:35;;;;;;;5.50;2.30;;;22.20;77.50;;;;;;5063542;28;20553;-73
2023/08/10 01:30:02;;;;;;;4.47;2.38;;;22.10;77.40;;;;;;5066055;28;20037;-73
2023/08/10 01:32:29;;;;;;;4.00;2.40;;;22.10;77.50;;;;;;5068034;28;20075;-73
2023/08/10 01:34:59;;;;;;;4.30;2.40;;;22.20;77.50;;;;;;5064056;28;20049;-75
2023/08/10 01:37:26;;;;;;;4.90;2.35;;;22.20;77.20;;;;;;5063300;28;20040;-75
2023/08/10 01:39:52;;;;;;;3.53;2.40;;;22.20;77.20;;;;;;5052759;28;20038;-74
2023/08/10 01:42:18;;;;;;;4.57;2.67;;;22.10;77.10;;;;;;5065028;28;20426;-75
2023/08/10 01:45:06;;;;;;;6.43;2.57;;;22.10;77.30;;;;;;5068021;28;20128;-75
2023/08/10 01:48:04;;;;;;;3.15;2.78;;;22.10;77.10;;;;;;5069683;28;20070;-75
2023/08/10 01:50:33;;;;;;;3.35;2.20;;;22.10;77.20;;;;;;5079049;28;20349;-76
2023/08/10 01:53:25;;;;;;;4.22;2.42;;;22.00;77.60;;;;;;5062180;28;20039;-74
2023/08/10 01:55:52;;;;;;;2.97;2.65;;;21.90;78.00;;;;;;5066699;28;20044;-74
2023/08/10 01:58:18;;;;;;;3.80;2.72;;;21.80;78.00;;;;;;5068240;28;20126;-75
2023/08/10 02:00:45;;;;;;;4.90;2.35;;;21.80;78.80;;;;;;5066787;28;20035;-75
2023/08/10 02:03:11;;;;;;;3.72;2.47;;;21.80;78.30;;;;;;5070458;28;21688;-74
2023/08/10 02:05:37;;;;;;;3.95;2.35;;;21.80;78.10;;;;;;5067198;28;20064;-74
2023/08/10 02:08:04;;;;;;;3.90;2.45;;;21.80;78.20;;;;;;5062013;28;20041;-74
2023/08/10 02:10:30;;;;;;;3.75;2.60;;;21.80;78.00;;;;;;5052008;28;20033;-74
2023/08/10 02:12:57;;;;;;;3.92;2.83;;;21.70;77.90;;;;;;5064989;28;20364;-73
2023/08/10 02:15:23;;;;;;;3.03;2.55;;;21.70;78.60;;;;;;5068520;28;20036;-74
2023/08/10 02:17:49;;;;;;;5.75;2.90;;;21.70;78.70;;;;;;5063745;28;20036;-73
2023/08/10 02:20:16;;;;;;;4.03;2.47;;;21.80;78.60;;;;;;5063630;28;20090;-73
2023/08/10 02:22:51;;;;;;;3.53;2.33;;;21.80;78.30;;;;;;5065268;28;20135;-74
2023/08/10 02:25:18;;;;;;;5.60;2.33;;;21.90;78.10;;;;;;5062266;28;20466;-73
2023/08/10 02:27:44;;;;;;;4.60;2.50;;;22.00;78.00;;;;;;5060972;28;20116;-73
2023/08/10 02:30:11;;;;;;;4.35;2.20;;;22.00;77.70;;;;;;5063713;28;20115;-75
2023/08/10 02:32:37;;;;;;;3.53;2.45;;;22.00;77.70;;;;;;5065763;28;20032;-74
2023/08/10 02:35:08;;;;;;;5.22;2.60;;;21.90;77.40;;;;;;5066935;28;20068;-74
2023/08/10 02:37:35;;;;;;;5.13;2.67;;;21.90;77.50;;;;;;5061499;28;20050;-73
2023/08/10 02:40:07;;;;;;;6.95;2.72;;;21.90;77.90;;;;;;5060107;28;20393;-75
2023/08/10 02:42:33;;;;;;;3.38;2.42;;;21.80;78.10;;;;;;5061984;28;20036;-76
2023/08/10 02:44:59;;;;;;;4.05;2.50;;;21.80;78.30;;;;;;5062545;28;20127;-76
2023/08/10 02:47:26;;;;;;;3.67;2.30;;;21.80;77.90;;;;;;5063205;28;20445;-75
2023/08/10 02:49:52;;;;;;;6.90;2.88;;;21.70;77.90;;;;;;5061163;28;20139;-75
2023/08/10 02:52:18;;;;;;;7.47;2.83;;;21.80;78.40;;;;;;5061590;28;20029;-75
2023/08/10 02:54:44;;;;;;;5.10;2.72;;;21.80;78.30;;;;;;5064573;28;20044;-74
2023/08/10 02:57:10;;;;;;;3.85;2.63;;;21.70;78.10;;;;;;5066994;28;20036;-75
2023/08/10 02:59:36;;;;;;;4.15;2.45;;;21.60;78.60;;;;;;5049097;28;20086;-78
2023/08/10 03:02:03;;;;;;;4.72;2.50;;;21.60;78.60;;;;;;5065871;28;20037;-77
2023/08/10 03:04:30;;;;;;;10.48;2.70;;;21.70;78.60;;;;;;5048919;28;20472;-77
2023/08/10 03:06:56;;;;;;;4.47;2.85;;;21.70;78.30;;;;;;5060848;28;20029;-77
2023/08/10 03:09:22;;;;;;;3.97;2.67;;;21.80;78.40;;;;;;5063569;28;20028;-77
2023/08/10 03:11:49;;;;;;;4.22;2.60;;;21.80;78.70;;;;;;5059220;28;20040;-77
2023/08/10 03:14:15;;;;;;;4.38;2.55;;;21.80;78.00;;;;;;5063088;28;20040;-76
2023/08/10 03:16:42;;;;;;;3.92;2.30;;;21.80;78.30;;;;;;5062660;28;20028;-76
2023/08/10 03:19:08;;;;;;;4.95;3.10;;;21.70;78.10;;;;;;5048278;28;20074;-76
2023/08/10 03:21:34;;;;;;;5.00;2.88;;;21.70;78.30;;;;;;5061015;28;20368;-76
2023/08/10 03:24:00;;;;;;;4.28;2.90;;;21.60;78.40;;;;;;5060219;28;20036;-77
2023/08/10 03:26:26;;;;;;;3.80;2.53;;;21.60;78.80;;;;;;5059717;28;20054;-77
2023/08/10 03:28:52;;;;;;;4.82;2.65;;;21.60;78.70;;;;;;5063420;28;20407;-77
2023/08/10 03:31:18;;;;;;;4.72;2.88;;;21.70;78.70;;;;;;5063627;28;20081;-74
2023/08/10 03:33:44;;;;;;;4.35;2.58;;;21.70;78.40;;;;;;5065713;28;20571;-77
2023/08/10 03:36:10;;;;;;;4.18;2.20;;;21.70;78.30;;;;;;5067031;28;20033;-75
2023/08/10 03:38:36;;;;;;;4.85;3.00;;;21.80;78.50;;;;;;5046026;28;20067;-76
2023/08/10 03:41:02;;;;;;;4.65;2.60;;;21.80;78.20;;;;;;5053123;28;20035;-75
2023/08/10 03:43:28;;;;;;;5.30;3.17;;;21.80;78.40;;;;;;5051031;28;20630;-75
2023/08/10 03:45:54;;;;;;;5.63;2.53;;;21.80;77.90;;;;;;5065334;28;20211;-75
2023/08/10 03:48:21;;;;;;;5.47;2.60;;;21.70;78.10;;;;;;5066058;28;20027;-75
2023/08/10 03:50:47;;;;;;;4.22;2.42;;;21.80;78.40;;;;;;5066717;28;20028;-74
2023/08/10 03:53:14;;;;;;;4.22;2.80;;;21.80;78.40;;;;;;5064908;28;20033;-74
2023/08/10 03:55:43;;;;;;;5.55;2.78;;;21.80;77.80;;;;;;5066993;28;20534;-73
2023/08/10 03:58:09;;;;;;;4.43;3.08;;;21.80;77.80;;;;;;5049779;28;20408;-75
2023/08/10 04:00:36;;;;;;;3.85;2.58;;;21.80;77.60;;;;;;5065841;28;20060;-75
2023/08/10 04:03:02;;;;;;;4.75;3.35;;;21.80;78.10;;;;;;5069810;28;20060;-75
2023/08/10 04:05:28;;;;;;;4.15;2.88;;;21.70;78.20;;;;;;5070014;28;20037;-76
2023/08/10 04:07:54;;;;;;;7.28;2.75;;;21.80;78.60;;;;;;5070575;28;20476;-76
2023/08/10 04:10:20;;;;;;;6.25;3.00;;;21.80;78.50;;;;;;5066943;28;20081;-78
2023/08/10 04:12:46;;;;;;;6.38;2.80;;;21.90;77.90;;;;;;5049433;28;20107;-78
2023/08/10 04:15:12;;;;;;;5.30;2.80;;;22.00;78.30;;;;;;5067198;28;20039;-78
2023/08/10 04:17:38;;;;;;;5.32;2.90;;;22.20;77.60;;;;;;5052867;28;20037;-76
2023/08/10 04:20:08;;;;;;;5.45;2.67;;;22.30;77.10;;;;;;5064707;28;20106;-77
2023/08/10 04:22:35;;;;;;;5.03;3.03;;;22.50;76.50;;;;;;5067132;28;20107;-77
2023/08/10 04:25:02;;;;;;;5.07;2.88;;;22.80;76.30;;;;;;5069149;28;20606;-77
2023/08/10 04:27:29;;;;;;;3.58;2.60;;;23.00;75.60;;;;;;5068586;28;20033;-76
2023/08/10 04:29:54;;;;;;;3.10;2.35;;;23.20;74.70;;;;;;5071182;28;20036;-77
2023/08/10 04:32:20;;;;;;;4.00;2.58;;;23.40;74.80;;;;;;5064117;28;20047;-76
2023/08/10 04:34:46;;;;;;;8.23;2.67;;;23.60;74.00;;;;;;5065553;28;20032;-77
2023/08/10 04:37:12;;;;;;;5.80;2.55;;;23.80;73.30;;;;;;5069843;28;20040;-77
2023/08/10 04:39:38;;;;;;;3.50;2.70;;;24.00;73.20;;;;;;5061649;28;20029;-75
2023/08/10 04:42:04;;;;;;;4.30;2.60;;;24.20;72.00;;;;;;5068716;28;20025;-77
2023/08/10 04:44:30;;;;;;;6.05;3.15;;;24.40;71.50;;;;;;5067811;28;20507;-78
2023/08/10 04:46:56;;;;;;;4.80;2.65;;;24.60;71.00;;;;;;5065336;28;20030;-77
2023/08/10 04:49:23;;;;;;;3.83;2.40;;;24.80;71.00;;;;;;5067844;28;20171;-77
2023/08/10 04:51:49;;;;;;;4.13;2.33;;;25.00;69.90;;;;;;5063905;28;20123;-77
2023/08/10 04:54:15;;;;;;;3.20;2.60;;;25.10;68.80;;;;;;5068099;28;20143;-77
2023/08/10 04:56:41;;;;;;;5.88;2.63;;;25.20;68.30;;;;;;5063532;28;20112;-79
2023/08/10 04:59:07;;;;;;;7.00;3.03;;;25.40;69.00;;;;;;5067778;28;20406;-77
2023/08/10 05:01:33;;;;;;;5.35;2.72;;;25.40;67.90;;;;;;5069531;28;20081;-75
2023/08/10 05:03:59;;;;;;;4.97;2.63;;;25.60;68.10;;;;;;5061450;28;20036;-76
2023/08/10 05:06:25;;;;;;;3.67;2.63;;;25.80;67.20;;;;;;5064361;28;20115;-75
2023/08/10 05:08:51;;;;;;;3.72;2.38;;;25.90;67.00;;;;;;5065646;28;21407;-75
2023/08/10 05:11:17;;;;;;;5.57;2.30;;;26.00;66.20;;;;;;5063565;28;20467;-76
2023/08/10 05:13:43;;;;;;;7.45;2.90;;;26.10;65.90;;;;;;5064758;28;20122;-76
2023/08/10 05:16:09;;;;;;;4.15;3.25;;;26.20;65.70;;;;;;5063944;28;20064;-75
2023/08/10 05:18:35;;;;;;;5.07;2.85;;;26.40;66.00;;;;;;5067025;28;20036;-76
2023/08/10 05:21:02;;;;;;;7.90;3.17;;;26.50;66.20;;;;;;5063979;28;20060;-76
2023/08/10 05:23:28;;;;;;;5.00;2.58;;;26.70;65.90;;;;;;5064810;28;21223;-75
2023/08/10 05:25:54;;;;;;;2.53;2.30;;;26.80;64.80;;;;;;5068939;28;20458;-76
2023/08/10 05:28:20;;;;;;;3.50;2.40;;;26.90;64.50;;;;;;5065890;28;20036;-76
2023/08/10 05:30:46;;;;;;;4.80;2.10;;;27.10;64.90;;;;;;5064300;28;20028;-76
2023/08/10 05:33:12;;;;;;;3.80;2.50;;;27.20;64.40;;;;;;5064294;28;20040;-76
2023/08/10 05:35:38;;;;;;;4.90;2.33;;;27.40;63.70;;;;;;5062380;28;20036;-76
2023/08/10 05:38:04;;;;;;;2.88;2.30;;;27.50;64.60;;;;;;5066642;28;20044;-76
2023/08/10 05:40:30;;;;;;;4.75;2.17;;;27.70;64.00;;;;;;5068930;28;20090;-76
2023/08/10 05:42:57;;;;;;;4.85;2.65;;;27.80;64.10;;;;;;5048209;28;20435;-76
2023/08/10 05:45:23;;;;;;;4.40;2.30;;;27.90;62.90;;;;;;5065174;28;20035;-77
2023/08/10 05:47:50;;;;;;;4.10;2.22;;;28.00;62.40;;;;;;5067164;28;20068;-76
2023/08/10 05:50:16;;;;;;;3.55;2.38;;;28.10;63.60;;;;;;5064446;28;20029;-75
2023/08/10 05:52:43;;;;;;;4.97;2.42;;;28.20;63.30;;;;;;5063021;28;20032;-75
2023/08/10 05:55:09;;;;;;;4.78;2.50;;;28.40;62.50;;;;;;5062892;28;20040;-74
2023/08/10 05:57:35;;;;;;;5.05;2.80;;;28.50;61.30;;;;;;5067146;28;20514;-75
2023/08/10 06:00:02;;;;;;;6.15;2.00;;;28.60;61.20;;;;;;5064981;28;20036;-75
2023/08/10 06:02:38;;;;;;;3.97;2.38;;;28.60;62.30;;;;;;5065673;28;20029;-76
2023/08/10 06:05:06;;;;;;;3.75;2.80;;;28.70;62.00;;;;;;5065515;28;20036;-76
2023/08/10 06:07:33;;;;;;;5.30;2.80;;;28.90;60.70;;;;;;5064295;28;20454;-75
2023/08/10 06:10:00;;;;;;;4.22;2.72;;;28.90;60.00;;;;;;5064288;28;20076;-75
2023/08/10 06:12:26;;;;;;;2.78;2.45;;;28.80;60.10;;;;;;5066345;28;20036;-76
2023/08/10 06:14:51;;;;;;;6.15;2.60;;;28.90;60.70;;;;;;5061239;28;20566;-75
2023/08/10 06:17:17;;;;;;;5.25;2.53;;;29.00;60.40;;;;;;5065945;28;20549;-75
2023/08/10 06:19:51;;;;;;;4.47;2.50;;;29.00;59.40;;;;;;5063633;28;20508;-76
2023/08/10 06:22:17;;;;;;;3.17;2.05;;;29.00;60.30;;;;;;5050995;28;20028;-76
2023/08/10 06:24:43;;;;;;;4.78;2.42;;;29.10;61.20;;;;;;5063604;28;20414;-77
2023/08/10 06:27:09;;;;;;;4.82;2.50;;;29.20;61.00;;;;;;5060799;28;20119;-76
2023/08/10 06:29:36;;;;;;;4.25;2.53;;;29.40;58.90;;;;;;5066769;28;20041;-77
2023/08/10 06:32:08;;;;;;;3.83;2.63;;;29.40;59.70;;;;;;5064326;28;20052;-76
2023/08/10 06:34:34;;;;;;;6.32;2.38;;;29.40;59.30;;;;;;5045495;28;20036;-76
2023/08/10 06:37:00;;;;;;;5.93;3.00;;;29.30;58.30;;;;;;5061391;28;20041;-77
2023/08/10 06:39:27;;;;;;;5.68;2.67;;;29.20;58.60;;;;;;5051893;28;20036;-77
2023/08/10 06:41:56;;;;;;;5.68;2.40;;;29.20;59.50;;;;;;5062070;28;20139;-77
2023/08/10 06:44:29;;;;;;;6.45;2.25;;;29.40;60.30;;;;;;5063120;28;20115;-76
2023/08/10 06:46:55;;;;;;;10.75;2.38;;;29.50;59.80;;;;;;5061405;28;20039;-77
2023/08/10 06:49:21;;;;;;;6.07;2.20;;;29.50;59.60;;;;;;5065326;28;20036;-76
2023/08/10 06:51:50;;;;;;;8.18;2.30;;;29.60;60.00;;;;;;5065678;28;20028;-77
2023/08/10 06:54:16;;;;;;;4.25;2.45;;;29.70;60.50;;;;;;5064498;28;20131;-76
2023/08/10 06:56:41;;;;;;;3.13;2.45;;;29.60;58.80;;;;;;5065202;28;20118;-74
2023/08/10 06:59:07;;;;;;;4.32;2.20;;;29.70;60.60;;;;;;5061445;28;20426;-74
2023/08/10 07:01:34;;;;;;;4.78;2.42;;;29.70;59.40;;;;;;5061729;28;20032;-76
2023/08/10 07:04:00;;;;;;;2.85;2.25;;;29.70;59.20;;;;;;5061432;28;20479;-76
2023/08/10 07:06:27;;;;;;;6.75;2.47;;;29.80;59.20;;;;;;5062835;28;20090;-75
2023/08/10 07:08:53;;;;;;;2.53;2.30;;;29.80;59.40;;;;;;5062209;28;20028;-75
2023/08/10 07:11:20;;;;;;;5.13;2.47;;;29.90;59.90;;;;;;5064779;28;20040;-75
2023/08/10 07:13:51;;;;;;;4.72;2.78;;;29.80;60.70;;;;;;5062366;28;20042;-75
2023/08/10 07:16:18;;;;;;;3.95;2.20;;;29.90;60.70;;;;;;5065891;28;20120;-75
2023/08/10 07:18:44;;;;;;;2.90;2.33;;;29.90;58.20;;;;;;5068657;28;20093;-76
2023/08/10 07:21:10;;;;;;;4.05;2.45;;;29.70;58.60;;;;;;5065965;28;20021;-77
2023/08/10 07:23:36;;;;;;;3.15;2.00;;;29.70;59.00;;;;;;5072734;28;20032;-77
2023/08/10 07:26:02;;;;;;;7.53;2.20;;;29.70;58.50;;;;;;5064524;28;20044;-76
2023/08/10 07:28:28;;;;;;;3.58;2.50;;;29.70;59.30;;;;;;5071271;28;20044;-75
2023/08/10 07:30:54;;;;;;;3.28;2.20;;;29.80;58.90;;;;;;5067952;28;20534;-75
2023/08/10 07:33:21;;;;;;;4.95;2.20;;;29.80;58.80;;;;;;5064894;28;20029;-75
2023/08/10 07:35:47;;;;;;;4.15;1.98;;;29.80;58.10;;;;;;5067298;28;20044;-77
2023/08/10 07:38:13;;;;;;;4.35;2.20;;;29.90;61.20;;;;;;5063255;28;20040;-76
2023/08/10 07:40:39;;;;;;;3.95;2.30;;;29.90;59.10;;;;;;5066325;28;20033;-76
2023/08/10 07:43:05;;;;;;;2.83;2.10;;;29.90;60.00;;;;;;5069402;28;20109;-76
2023/08/10 07:45:31;;;;;;;5.35;2.30;;;29.90;57.70;;;;;;5068904;28;20033;-75
2023/08/10 07:47:58;;;;;;;5.30;2.17;;;29.80;57.30;;;;;;5063346;28;20037;-76
2023/08/10 07:50:23;;;;;;;3.65;1.85;;;29.70;57.40;;;;;;5060904;28;20034;-76
2023/08/10 07:52:49;;;;;;;2.15;1.95;;;29.70;57.50;;;;;;5061352;28;20036;-73
2023/08/10 07:55:15;;;;;;;1.98;1.85;;;29.70;57.40;;;;;;5062464;28;20040;-75
2023/08/10 07:57:42;;;;;;;3.10;2.00;;;29.60;58.10;;;;;;5060015;28;20040;-74
2023/08/10 08:00:10;;;;;;;3.38;2.10;;;29.60;58.80;;;;;;5061654;28;20447;-75
2023/08/10 08:02:39;;;;;;;3.10;2.08;;;29.50;58.20;;;;;;5062076;28;20065;-73
2023/08/10 08:05:06;;;;;;;2.40;2.03;;;29.30;57.80;;;;;;5060926;28;20111;-76
2023/08/10 08:07:32;;;;;;;5.65;2.30;;;29.20;57.20;;;;;;5059490;28;20048;-78
2023/08/10 08:10:01;;;;;;;3.72;2.58;;;29.20;59.00;;;;;;5066361;28;20028;-77
2023/08/10 08:12:27;;;;;;;9.45;8.65;;;29.20;58.60;;;;;;5045631;28;20499;-75
2023/08/10 08:14:54;;;;;;;9.88;9.07;;;29.20;59.80;;;;;;5065773;28;20109;-77
2023/08/10 08:17:21;;;;;;;7.70;6.88;;;29.10;61.20;;;;;;5065881;28;20037;-83
2023/08/10 08:19:48;;;;;;;6.20;5.38;;;29.00;60.30;;;;;;5065021;28;20024;-79
2023/08/10 08:22:14;;;;;;;4.15;3.75;;;28.80;59.80;;;;;;5047727;28;20037;-82
2023/08/10 08:24:41;;;;;;;4.40;3.75;;;28.60;60.00;;;;;;5065563;28;20036;-82
2023/08/10 08:27:07;;;;;;;6.75;3.63;;;28.50;60.00;;;;;;5068000;28;20033;-82
2023/08/10 08:29:34;;;;;;;4.78;3.70;;;28.50;62.00;;;;;;5050034;28;20040;-80
2023/08/10 08:32:00;;;;;;;4.22;3.25;;;28.50;60.30;;;;;;5062545;28;20036;-81
2023/08/10 08:34:26;;;;;;;4.35;2.70;;;28.30;61.10;;;;;;5063328;28;20158;-82
2023/08/10 08:36:53;;;;;;;4.22;3.13;;;28.40;61.40;;;;;;5062466;28;20136;-80
2023/08/10 08:39:19;;;;;;;3.20;2.65;;;28.40;61.70;;;;;;5068093;28;20363;-81
2023/08/10 08:41:46;;;;;;;3.95;2.70;;;28.30;61.10;;;;;;5063926;28;20040;-81
2023/08/10 08:44:15;;;;;;;4.55;2.35;;;28.30;60.40;;;;;;5062576;28;20178;-81
2023/08/10 08:46:45;;;;;;;6.10;3.90;;;28.30;60.50;;;;;;5051904;28;20063;-80
2023/08/10 08:49:11;;;;;;;4.15;3.63;;;28.30;60.10;;;;;;5047531;28;20535;-81
2023/08/10 08:51:38;;;;;;;4.05;2.50;;;28.20;60.00;;;;;;5052548;28;20043;-81
2023/08/10 08:54:04;;;;;;;3.70;2.60;;;28.20;60.40;;;;;;5065269;28;20048;-82
2023/08/10 08:56:30;;;;;;;4.43;2.50;;;28.10;59.40;;;;;;5065373;28;20411;-79
2023/08/10 08:58:56;;;;;;;5.10;2.70;;;28.10;59.90;;;;;;5065997;28;20058;-81
2023/08/10 09:01:22;;;;;;;3.22;2.35;;;28.10;59.50;;;;;;5061378;28;20056;-81
2023/08/10 09:03:48;;;;;;;3.33;2.35;;;28.10;60.50;;;;;;5052072;28;21535;-80
2023/08/10 09:06:15;;;;;;;2.85;2.60;;;28.00;59.30;;;;;;5067823;28;20082;-81
2023/08/10 09:08:42;;;;;;;4.25;2.53;;;27.90;60.00;;;;;;5060943;28;20419;-78
2023/08/10 09:11:08;;;;;;;3.45;2.65;;;27.80;59.70;;;;;;5069571;28;20031;-77
2023/08/10 09:13:34;;;;;;;3.20;2.53;;;27.70;59.10;;;;;;5065206;28;20039;-80
2023/08/10 09:16:11;;;;;;;3.88;2.65;;;27.60;59.00;;;;;;5065681;28;20059;-81
2023/08/10 09:18:39;;;;;;;3.38;2.35;;;27.50;58.90;;;;;;5067412;28;20123;-80
2023/08/10 09:21:11;;;;;;;3.88;2.20;;;27.50;58.70;;;;;;5067968;28;20033;-80
2023/08/10 09:23:37;;;;;;;4.25;2.30;;;27.40;58.60;;;;;;5043440;28;20041;-79
2023/08/10 09:26:10;;;;;;;4.05;2.30;;;27.50;60.00;;;;;;5063268;28;20028;-79
2023/08/10 09:28:37;;;;;;;2.67;2.42;;;27.60;59.40;;;;;;5065828;28;20102;-81
2023/08/10 09:31:04;;;;;;;4.95;2.20;;;27.50;59.60;;;;;;5064309;28;20032;-80
2023/08/10 09:33:35;;;;;;;2.30;2.10;;;27.60;58.90;;;;;;5067269;28;20079;-79
2023/08/10 09:36:03;;;;;;;3.83;2.10;;;27.50;58.10;;;;;;5064447;28;20584;-81
2023/08/10 09:38:29;;;;;;;3.17;2.15;;;27.50;57.60;;;;;;5065553;28;20047;-76
2023/08/10 09:41:08;;;;;;;2.15;1.90;;;27.50;57.50;;;;;;5065455;28;20040;-81
2023/08/10 09:43:36;;;;;;;3.30;2.33;;;27.50;57.60;;;;;;5065011;28;20038;-81
2023/08/10 09:46:04;;;;;;;2.75;2.20;;;27.50;57.70;;;;;;5065376;28;20036;-80
2023/08/10 09:48:35;;;;;;;10.52;9.43;;;27.40;58.50;;;;;;5065424;28;20031;-80
2023/08/10 09:51:04;;;;;;;3.65;3.10;;;27.40;59.00;;;;;;5067989;28;20135;-75
2023/08/10 09:53:31;;;;;;;4.38;2.33;;;27.40;57.90;;;;;;5066184;28;20032;-79
2023/08/10 09:55:57;;;;;;;3.50;2.40;;;27.40;58.80;;;;;;5061545;28;20048;-79
2023/08/10 09:58:24;;;;;;;3.25;1.92;;;27.40;58.00;;;;;;5063285;28;20041;-79
2023/08/10 10:00:50;;;;;;;3.38;2.60;;;27.40;57.30;;;;;;5050797;28;20136;-80
2023/08/10 10:03:17;;;;;;;2.50;2.10;;;27.40;58.40;;;;;;5066059;28;20028;-81
2023/08/10 10:05:44;;;;;;;4.13;2.60;;;27.40;58.60;;;;;;5068104;28;20409;-81
2023/08/10 10:08:14;;;;;;;3.25;2.00;;;27.40;57.60;;;;;;5069009;28;20040;-80
2023/08/10 10:10:43;;;;;;;3.78;2.00;;;27.40;58.80;;;;;;5062686;28;20037;-81
2023/08/10 10:13:13;;;;;;;2.72;2.20;;;27.40;58.80;;;;;;5063431;28;20036;-78
2023/08/10 10:15:48;;;;;;;2.85;2.40;;;27.40;57.30;;;;;;5065355;28;20043;-80
2023/08/10 10:18:14;;;;;;;4.15;2.30;;;27.30;57.90;;;;;;5066741;28;20048;-81
2023/08/10 10:20:43;;;;;;;3.65;1.90;;;27.30;57.60;;;;;;5062869;28;20033;-80
2023/08/10 10:23:18;;;;;;;2.35;2.15;;;27.30;58.20;;;;;;5062430;28;20036;-79
2023/08/10 10:25:58;;;;;;;3.00;1.90;;;27.30;58.30;;;;;;5062076;28;20032;-80
2023/08/10 10:28:27;;;;;;;2.85;1.90;;;27.40;57.30;;;;;;5062486;28;20028;-85
2023/08/10 10:31:14;;;;;;;4.00;2.20;;;27.40;57.90;;;;;;5044717;28;20029;-79
2023/08/10 10:33:55;;;;;;;3.00;1.98;;;27.40;58.40;;;;;;5066667;28;20215;-78
2023/08/10 10:36:25;;;;;;;3.08;2.28;;;27.50;58.40;;;;;;5064367;28;20509;-79
2023/08/10 10:39:07;;;;;;;5.57;2.42;;;27.40;56.50;;;;;;5066075;28;20041;-80
2023/08/10 10:41:39;;;;;;;2.42;2.00;;;27.40;56.60;;;;;;5061159;28;20379;-76
2023/08/10 10:44:06;;;;;;;1.92;1.70;;;27.40;55.50;;;;;;5065183;28;20033;-81
2023/08/10 10:46:32;;;;;;;2.17;1.98;;;27.30;55.40;;;;;;5063321;28;20037;-82
2023/08/10 10:49:04;;;;;;;2.60;1.73;;;27.30;55.30;;;;;;5063125;28;20041;-79
2023/08/10 10:51:30;;;;;;;2.90;1.50;;;27.30;55.10;;;;;;5062898;28;20024;-80
2023/08/10 10:53:57;;;;;;;2.40;1.83;;;27.20;55.60;;;;;;5064877;28;20036;-81
2023/08/10 10:56:27;;;;;;;1.60;1.50;;;27.20;54.40;;;;;;5063041;28;20101;-81
2023/08/10 10:58:53;;;;;;;2.63;1.67;;;27.10;55.20;;;;;;5062421;28;20048;-80
2023/08/10 11:01:20;;;;;;;1.52;1.42;;;27.10;54.40;;;;;;5063024;28;20079;-81
2023/08/10 11:03:53;;;;;;;2.33;1.58;;;27.10;54.30;;;;;;5062110;28;20060;-81
2023/08/10 11:06:20;;;;;;;2.00;1.67;;;27.10;55.70;;;;;;5063011;28;20557;-80
2023/08/10 11:08:55;;;;;;;2.65;1.98;;;27.10;55.50;;;;;;5063478;28;20087;-81
2023/08/10 11:11:24;;;;;;;1.98;1.77;;;27.10;56.70;;;;;;5064447;28;20037;-81
2023/08/10 11:13:52;;;;;;;2.65;1.83;;;27.00;55.90;;;;;;5066577;28;20041;-77
2023/08/10 11:16:18;;;;;;;1.83;1.70;;;27.10;56.80;;;;;;5064522;28;20381;-78
2023/08/10 11:18:45;;;;;;;2.13;1.60;;;27.10;56.70;;;;;;5064793;28;20036;-81
2023/08/10 11:21:12;;;;;;;2.17;1.98;;;27.10;56.20;;;;;;5064197;28;20119;-80
2023/08/10 11:23:39;;;;;;;1.80;1.70;;;27.20;56.60;;;;;;5060589;28;20036;-80
2023/08/10 11:26:05;;;;;;;2.00;1.80;;;27.10;56.60;;;;;;5063699;28;20029;-77
2023/08/10 11:28:32;;;;;;;3.28;1.75;;;27.20;56.40;;;;;;5060713;28;20029;-79
2023/08/10 11:31:03;;;;;;;3.00;1.83;;;27.20;56.50;;;;;;5061057;28;20025;-77
2023/08/10 11:33:29;;;;;;;2.38;1.65;;;27.20;55.90;;;;;;5063335;28;20029;-79
2023/08/10 11:35:56;;;;;;;2.65;2.00;;;27.20;56.20;;;;;;5065825;28;20059;-78
2023/08/10 11:38:23;;;;;;;2.10;2.00;;;27.20;56.90;;;;;;5068811;28;20114;-78
2023/08/10 11:40:50;;;;;;;2.67;2.08;;;27.20;56.50;;;;;;5066872;28;21253;-77
2023/08/10 11:43:19;;;;;;;2.45;2.20;;;27.20;57.10;;;;;;5065259;28;20051;-81
2023/08/10 11:45:46;;;;;;;2.95;1.88;;;27.20;57.90;;;;;;5064124;28;20179;-81
2023/08/10 11:48:16;;;;;;;2.78;2.05;;;27.20;57.30;;;;;;5066661;28;20017;-81
2023/08/10 11:50:43;;;;;;;5.43;2.03;;;27.20;57.10;;;;;;5066223;28;20028;-78
2023/08/10 11:53:11;;;;;;;3.85;1.90;;;27.20;57.20;;;;;;5066644;28;20416;-77
2023/08/10 11:55:42;;;;;;;2.47;1.80;;;27.20;56.80;;;;;;5067208;28;20034;-77
2023/08/10 11:58:09;;;;;;;3.03;1.90;;;27.20;57.50;;;;;;5068307;28;20064;-79
2023/08/10 12:00:38;;;;;;;2.65;2.38;;;27.20;57.40;;;;;;5067518;28;20803;-78
2023/08/10 12:03:12;;;;;;;2.88;2.33;;;27.10;56.60;;;;;;5066744;28;20126;-76
2023/08/10 12:05:49;;;;;;;3.28;1.65;;;27.10;57.00;;;;;;5065090;28;20559;-75
2023/08/10 12:08:18;;;;;;;2.80;2.00;;;27.10;57.40;;;;;;5066153;28;20036;-76
2023/08/10 12:11:00;;;;;;;3.78;1.90;;;27.10;57.60;;;;;;5067629;28;20040;-75
2023/08/10 12:13:26;;;;;;;4.35;2.28;;;27.20;58.10;;;;;;5065312;28;20127;-76
2023/08/10 12:15:53;;;;;;;2.55;2.00;;;27.20;57.90;;;;;;5065703;28;20140;-75
2023/08/10 12:18:21;;;;;;;2.35;2.10;;;27.20;57.90;;;;;;5064997;28;20503;-73
2023/08/10 12:20:49;;;;;;;3.17;2.00;;;27.20;57.10;;;;;;5064992;28;20029;-76
2023/08/10 12:23:16;;;;;;;2.80;2.20;;;27.20;56.90;;;;;;5066953;28;20028;-73
2023/08/10 12:25:46;;;;;;;4.82;2.25;;;27.20;56.30;;;;;;5065498;28;20094;-73
2023/08/10 12:28:14;;;;;;;2.60;2.40;;;27.20;57.20;;;;;;5065458;28;20036;-72
2023/08/10 12:30:40;;;;;;;3.33;2.00;;;27.30;57.40;;;;;;5065329;28;20514;-72
2023/08/10 12:33:11;;;;;;;2.88;2.25;;;27.20;57.00;;;;;;5064727;28;20127;-73
2023/08/10 12:35:37;;;;;;;3.25;2.15;;;27.20;56.70;;;;;;5065872;28;20060;-72
2023/08/10 12:38:05;;;;;;;1.90;1.80;;;27.20;56.60;;;;;;5065739;28;20073;-73
2023/08/10 12:40:32;;;;;;;2.67;1.90;;;27.20;56.70;;;;;;5066544;28;20060;-73
2023/08/10 12:42:58;;;;;;;2.47;1.90;;;27.20;56.70;;;;;;5066806;28;20040;-74
2023/08/10 12:45:25;;;;;;;2.20;2.05;;;27.10;56.30;;;;;;5065749;28;20456;-74
2023/08/10 12:47:52;;;;;;;2.28;1.92;;;27.10;56.50;;;;;;5065438;28;20441;-72